createdAt,value
2018-02-13T00:01:31.920Z,100685.02
2018-02-13T00:03:59.416Z,100685.16
2018-02-13T00:06:26.860Z,100682.71
2018-02-13T00:08:54.298Z,100678.46
2018-02-13T00:11:21.941Z,100685.00
2018-02-13T00:13:49.391Z,100676.65
2018-02-13T00:16:16.832Z,100676.34
2018-02-13T00:18:44.448Z,100682.92
2018-02-13T00:21:11.888Z,100679.88
2018-02-13T00:23:39.341Z,100679.76
2018-02-13T00:26:06.817Z,100682.97
2018-02-13T00:28:34.253Z,100676.72
2018-02-13T00:31:01.842Z,100677.53
2018-02-13T00:33:29.306Z,100674.05
2018-02-13T00:35:56.768Z,100675.09
2018-02-13T00:38:24.210Z,100677.30
2018-02-13T00:40:51.676Z,100675.28
2018-02-13T00:43:19.113Z,100679.28
2018-02-13T00:45:46.548Z,100677.20
2018-02-13T00:48:14.396Z,100678.30
2018-02-13T00:50:41.841Z,100672.47
2018-02-13T00:53:09.286Z,100672.13
2018-02-13T00:55:36.789Z,100674.30
2018-02-13T00:58:04.337Z,100681.03
2018-02-13T01:00:31.814Z,100681.63
2018-02-13T01:02:59.253Z,100682.09
2018-02-13T01:05:26.694Z,100688.28
2018-02-13T01:07:54.155Z,100687.03
2018-02-13T01:10:21.593Z,100678.97
2018-02-13T01:12:49.296Z,100681.86
2018-02-13T01:15:16.740Z,100681.56
2018-02-13T01:17:44.182Z,100680.54
2018-02-13T01:20:11.656Z,100676.64
2018-02-13T01:22:39.146Z,100680.00
2018-02-13T01:25:06.855Z,100680.33
2018-02-13T01:27:34.381Z,100679.50
2018-02-13T01:30:01.833Z,100678.36
2018-02-13T01:32:29.292Z,100684.36
2018-02-13T01:34:56.733Z,100677.28
2018-02-13T01:37:24.360Z,100682.08
2018-02-13T01:39:51.804Z,100679.82
2018-02-13T01:42:19.274Z,100681.61
2018-02-13T01:44:46.756Z,100679.18
2018-02-13T01:47:14.214Z,100668.48
2018-02-13T01:49:41.712Z,100670.09
2018-02-13T01:52:09.178Z,100668.87
2018-02-13T01:54:36.616Z,100666.27
2018-02-13T01:57:04.077Z,100672.33
2018-02-13T01:59:31.516Z,100671.09
2018-02-13T02:01:59.013Z,100666.20
2018-02-13T02:04:26.460Z,100665.76
2018-02-13T02:06:53.896Z,100662.10
2018-02-13T02:09:21.384Z,100657.73
2018-02-13T02:11:48.820Z,100660.03
2018-02-13T02:14:16.318Z,100660.02
2018-02-13T02:16:43.766Z,100658.84
2018-02-13T02:19:11.225Z,100652.91
2018-02-13T02:21:38.684Z,100658.75
2018-02-13T02:24:06.125Z,100656.90
2018-02-13T02:26:33.897Z,100659.31
2018-02-13T02:29:01.352Z,100656.84
2018-02-13T02:31:28.796Z,100656.42
2018-02-13T02:33:56.263Z,100654.53
2018-02-13T02:36:23.700Z,100652.26
2018-02-13T02:38:51.349Z,100647.95
2018-02-13T02:41:18.785Z,100644.28
2018-02-13T02:43:46.224Z,100641.06
2018-02-13T02:46:13.680Z,100636.94
2018-02-13T02:48:41.133Z,100634.03
2018-02-13T02:51:08.701Z,100634.14
2018-02-13T02:53:36.166Z,100634.06
2018-02-13T02:56:03.604Z,100636.01
2018-02-13T02:58:31.080Z,100637.02
2018-02-13T03:00:58.530Z,100638.62
2018-02-13T03:03:26.104Z,100632.10
2018-02-13T03:05:53.553Z,100636.75
2018-02-13T03:08:20.988Z,100632.42
2018-02-13T03:10:48.474Z,100636.59
2018-02-13T03:13:15.916Z,100640.31
2018-02-13T03:15:43.420Z,100643.72
2018-02-13T03:18:10.858Z,100637.10
2018-02-13T03:20:38.305Z,100638.40
2018-02-13T03:23:05.788Z,100639.18
2018-02-13T03:25:33.228Z,100635.47
2018-02-13T03:28:00.957Z,100628.51
2018-02-13T03:30:28.413Z,100628.07
2018-02-13T03:32:55.856Z,100626.84
2018-02-13T03:35:23.328Z,100625.55
2018-02-13T03:37:50.768Z,100620.31
2018-02-13T03:40:18.256Z,100626.82
2018-02-13T03:42:45.696Z,100619.89
2018-02-13T03:45:13.146Z,100620.08
2018-02-13T03:47:40.637Z,100619.38
2018-02-13T03:50:08.078Z,100613.16
2018-02-13T03:52:35.744Z,100610.35
2018-02-13T03:55:03.274Z,100609.72
2018-02-13T03:57:30.732Z,100615.48
2018-02-13T03:59:58.193Z,100608.25
2018-02-13T04:02:25.662Z,100612.83
2018-02-13T04:04:53.293Z,100609.66
2018-02-13T04:07:20.752Z,100618.72
2018-02-13T04:09:48.196Z,100613.65
2018-02-13T04:12:15.657Z,100612.10
2018-02-13T04:14:43.097Z,100612.08
2018-02-13T04:17:10.753Z,100612.80
2018-02-13T04:19:38.194Z,100609.86
2018-02-13T04:22:05.645Z,100606.61
2018-02-13T04:24:33.128Z,100605.41
2018-02-13T04:27:00.570Z,100605.42
2018-02-13T04:29:28.057Z,100606.22
2018-02-13T04:31:55.522Z,100597.18
2018-02-13T04:34:22.991Z,100600.09
2018-02-13T04:36:50.449Z,100592.48
2018-02-13T04:39:17.904Z,100588.56
2018-02-13T04:41:45.605Z,100584.34
2018-02-13T04:44:13.041Z,100586.83
2018-02-13T04:46:40.492Z,100584.09
2018-02-13T04:49:07.948Z,100576.06
2018-02-13T04:51:35.408Z,100574.98
2018-02-13T04:54:02.885Z,100572.02
2018-02-13T04:56:30.345Z,100575.03
2018-02-13T04:58:57.781Z,100564.61
2018-02-13T05:01:25.254Z,100573.98
2018-02-13T05:03:52.696Z,100572.52
2018-02-13T05:06:20.355Z,100564.03
2018-02-13T05:08:47.817Z,100564.73
2018-02-13T05:11:15.260Z,100559.11
2018-02-13T05:13:42.716Z,100563.58
2018-02-13T05:16:10.154Z,100558.59
2018-02-13T05:18:37.641Z,100558.00
2018-02-13T05:21:05.079Z,100559.62
2018-02-13T05:23:32.520Z,100555.92
2018-02-13T05:25:59.984Z,100550.40
2018-02-13T05:28:27.438Z,100556.75
2018-02-13T05:30:55.148Z,100553.47
2018-02-13T05:33:22.589Z,100553.05
2018-02-13T05:35:50.046Z,100550.39
2018-02-13T05:38:17.508Z,100552.34
2018-02-13T05:40:44.948Z,100554.52
2018-02-13T05:43:12.597Z,100548.87
2018-02-13T05:45:40.033Z,100552.45
2018-02-13T05:48:07.468Z,100548.09
2018-02-13T05:50:34.945Z,100558.87
2018-02-13T05:53:02.384Z,100553.13
2018-02-13T05:55:30.078Z,100547.73
2018-02-13T05:57:57.544Z,100550.35
2018-02-13T06:00:24.988Z,100551.41
2018-02-13T06:02:52.468Z,100554.47
2018-02-13T06:05:19.912Z,100554.66
2018-02-13T06:07:47.501Z,100554.98
2018-02-13T06:10:14.965Z,100550.43
2018-02-13T06:12:42.409Z,100552.91
2018-02-13T06:15:09.876Z,100553.52
2018-02-13T06:17:37.312Z,100552.10
2018-02-13T06:20:04.800Z,100551.20
2018-02-13T06:22:32.253Z,100550.78
2018-02-13T06:24:59.695Z,100552.02
2018-02-13T06:27:27.156Z,100556.78
2018-02-13T06:29:54.613Z,100555.48
2018-02-13T06:32:22.288Z,100555.41
2018-02-13T06:34:49.730Z,100554.67
2018-02-13T06:37:17.181Z,100551.52
2018-02-13T06:39:44.679Z,100556.50
2018-02-13T06:42:12.116Z,100556.25
2018-02-13T06:44:39.768Z,100548.02
2018-02-13T06:47:07.204Z,100550.20
2018-02-13T06:49:34.654Z,100554.91
2018-02-13T06:52:02.120Z,100557.59
2018-02-13T06:54:29.574Z,100554.85
2018-02-13T06:56:57.188Z,100554.76
2018-02-13T06:59:24.624Z,100551.05
2018-02-13T07:01:52.082Z,100552.66
2018-02-13T07:04:19.544Z,100556.22
2018-02-13T07:06:46.984Z,100553.70
2018-02-13T07:09:14.456Z,100553.70
2018-02-13T07:11:41.913Z,100549.55
2018-02-13T07:14:09.356Z,100557.30
2018-02-13T07:16:36.824Z,100549.41
2018-02-13T07:19:04.272Z,100548.92
2018-02-13T07:21:31.736Z,100540.27
2018-02-13T07:23:59.181Z,100551.45
2018-02-13T07:26:26.652Z,100545.13
2018-02-13T07:28:54.128Z,100542.72
2018-02-13T07:31:21.564Z,100541.81
2018-02-13T07:33:49.140Z,100539.28
2018-02-13T07:36:16.580Z,100538.56
2018-02-13T07:38:44.036Z,100534.69
2018-02-13T07:41:11.501Z,100538.60
2018-02-13T07:43:38.941Z,100540.72
2018-02-13T07:46:06.596Z,100544.68
2018-02-13T07:48:34.042Z,100537.65
2018-02-13T07:51:01.489Z,100543.65
2018-02-13T07:53:28.960Z,100546.84
2018-02-13T07:55:56.417Z,100543.94
2018-02-13T07:58:24.140Z,100540.59
2018-02-13T08:00:51.581Z,100536.92
2018-02-13T08:03:19.026Z,100532.25
2018-02-13T08:05:46.488Z,100536.13
2018-02-13T08:08:13.932Z,100532.16
2018-02-13T08:10:41.412Z,100537.84
2018-02-13T08:13:08.853Z,100532.02
2018-02-13T08:15:36.312Z,100535.45
2018-02-13T08:18:03.797Z,100528.55
2018-02-13T08:20:31.257Z,100529.15
2018-02-13T08:22:58.732Z,100524.92
2018-02-13T08:25:26.185Z,100526.18
2018-02-13T08:27:53.629Z,100518.98
2018-02-13T08:30:21.108Z,100521.58
2018-02-13T08:32:48.554Z,100523.24
2018-02-13T08:35:16.188Z,100518.03
2018-02-13T08:37:43.628Z,100512.64
2018-02-13T08:40:11.077Z,100513.06
2018-02-13T08:42:38.587Z,100504.68
2018-02-13T08:45:06.028Z,100506.95
2018-02-13T08:47:33.632Z,100506.42
2018-02-13T08:50:01.089Z,100497.84
2018-02-13T08:52:28.545Z,100504.44
2018-02-13T08:54:56.008Z,100498.30
2018-02-13T08:57:23.470Z,100498.56
2018-02-13T08:59:51.084Z,100497.27
2018-02-13T09:02:18.541Z,100502.08
2018-02-13T09:04:46.025Z,100498.43
2018-02-13T09:07:13.492Z,100497.86
2018-02-13T09:09:40.949Z,100495.47
2018-02-13T09:12:08.421Z,100491.64
2018-02-13T09:14:35.856Z,100486.88
2018-02-13T09:17:03.292Z,100489.95
2018-02-13T09:19:30.765Z,100487.27
2018-02-13T09:21:58.204Z,100475.27
2018-02-13T09:24:25.869Z,100471.22
2018-02-13T09:26:53.311Z,100470.73
2018-02-13T09:29:20.761Z,100466.11
2018-02-13T09:31:48.225Z,100465.19
2018-02-13T09:34:15.671Z,100460.91
2018-02-13T09:36:43.172Z,100459.12
2018-02-13T09:39:10.625Z,100445.39
2018-02-13T09:41:38.069Z,100444.64
2018-02-13T09:44:05.559Z,100443.08
2018-02-13T09:46:32.992Z,100444.00
2018-02-13T09:49:00.676Z,100433.19
2018-02-13T09:51:28.130Z,100436.27
2018-02-13T09:53:55.586Z,100437.03
2018-02-13T09:56:23.105Z,100436.59
2018-02-13T09:58:50.528Z,100429.35
2018-02-13T10:01:18.133Z,100433.20
2018-02-13T10:03:45.690Z,100420.45
2018-02-13T10:06:13.185Z,100423.41
2018-02-13T10:08:40.653Z,100427.36
2018-02-13T10:11:08.104Z,100419.57
2018-02-13T10:13:35.681Z,100420.93
2018-02-13T10:16:03.117Z,100421.69
2018-02-13T10:18:30.813Z,100411.02
2018-02-13T10:20:58.268Z,100404.14
2018-02-13T10:23:25.785Z,100413.66
2018-02-13T10:25:53.623Z,100404.56
2018-02-13T10:28:21.069Z,100401.12
2018-02-13T10:30:48.521Z,100395.81
2018-02-13T10:33:15.980Z,100382.28
2018-02-13T10:35:43.423Z,100389.28
2018-02-13T10:38:11.004Z,100378.40
2018-02-13T10:40:38.442Z,100375.77
2018-02-13T10:43:05.885Z,100367.91
2018-02-13T10:45:33.356Z,100370.53
2018-02-13T10:48:00.829Z,100368.73
2018-02-13T10:50:28.540Z,100362.71
2018-02-13T10:52:55.976Z,100366.58
2018-02-13T10:55:23.408Z,100364.85
2018-02-13T10:57:50.860Z,100365.78
2018-02-13T11:00:18.296Z,100355.37
2018-02-13T11:02:45.763Z,100348.86
2018-02-13T11:05:13.285Z,100339.20
2018-02-13T11:07:41.069Z,100333.52
2018-02-13T11:10:08.504Z,100328.30
2018-02-13T11:12:35.945Z,100317.37
2018-02-13T11:15:03.419Z,100308.13
2018-02-13T11:17:30.862Z,100306.41
2018-02-13T11:19:58.684Z,100298.06
2018-02-13T11:22:26.125Z,100299.39
2018-02-13T11:24:53.573Z,100284.92
2018-02-13T11:27:21.050Z,100278.80
2018-02-13T11:29:48.521Z,100266.46
2018-02-13T11:32:16.166Z,100271.76
2018-02-13T11:34:43.690Z,100270.39
2018-02-13T11:37:11.113Z,100261.13
2018-02-13T11:39:38.580Z,100261.53
2018-02-13T11:42:06.100Z,100250.98
2018-02-13T11:44:33.738Z,100256.70
2018-02-13T11:47:01.165Z,100256.61
2018-02-13T11:49:28.648Z,100255.69
2018-02-13T11:51:56.123Z,100251.22
2018-02-13T11:54:23.561Z,100249.53
2018-02-13T11:56:51.446Z,100246.91
2018-02-13T11:59:18.873Z,100252.62
2018-02-13T12:01:46.311Z,100235.36
2018-02-13T12:04:13.777Z,100239.86
2018-02-13T12:06:41.216Z,100234.56
2018-02-13T12:09:09.056Z,100226.55
2018-02-13T12:11:36.496Z,100230.13
2018-02-13T12:14:03.959Z,100229.30
2018-02-13T12:16:31.423Z,100220.15
2018-02-13T12:18:58.864Z,100218.42
2018-02-13T12:21:26.359Z,100203.82
2018-02-13T12:23:53.796Z,100196.30
2018-02-13T12:26:21.260Z,100198.01
2018-02-13T12:28:48.720Z,100193.92
2018-02-13T12:31:16.154Z,100193.09
2018-02-13T12:33:43.612Z,100181.99
2018-02-13T12:36:11.052Z,100178.36
2018-02-13T12:38:38.496Z,100174.12
2018-02-13T12:41:05.973Z,100171.34
2018-02-13T12:43:33.404Z,100169.97
2018-02-13T12:46:01.033Z,100178.27
2018-02-13T12:48:28.485Z,100174.98
2018-02-13T12:50:55.925Z,100162.61
2018-02-13T12:53:23.396Z,100165.98
2018-02-13T12:55:50.829Z,100163.32
2018-02-13T12:58:18.518Z,100165.72
2018-02-13T13:00:45.968Z,100159.06
2018-02-13T13:03:13.412Z,100155.91
2018-02-13T13:05:40.869Z,100157.39
2018-02-13T13:08:08.300Z,100152.24
2018-02-13T13:10:36.041Z,100143.38
2018-02-13T13:13:03.496Z,100142.94
2018-02-13T13:15:30.938Z,100137.39
2018-02-13T13:17:58.402Z,100136.47
2018-02-13T13:20:25.848Z,100117.26
2018-02-13T13:22:53.485Z,100119.52
2018-02-13T13:25:20.925Z,100117.28
2018-02-13T13:27:48.376Z,100108.08
2018-02-13T13:30:15.828Z,100107.61
2018-02-13T13:32:43.260Z,100101.42
2018-02-13T13:35:11.051Z,100092.63
2018-02-13T13:37:38.496Z,100091.23
2018-02-13T13:40:05.937Z,100088.58
2018-02-13T13:42:33.397Z,100086.33
2018-02-13T13:45:00.836Z,100083.85
2018-02-13T13:47:28.489Z,100084.08
2018-02-13T13:49:55.933Z,100084.98
2018-02-13T13:52:23.413Z,100077.66
2018-02-13T13:54:50.902Z,100072.77
2018-02-13T13:57:18.336Z,100069.90
2018-02-13T13:59:46.134Z,100070.95
2018-02-13T14:02:13.569Z,100053.67
2018-02-13T14:04:47.501Z,100053.70
2018-02-13T14:07:14.961Z,100049.23
2018-02-13T14:09:42.396Z,100047.41
2018-02-13T14:12:09.853Z,100042.53
2018-02-13T14:14:37.305Z,100040.47
2018-02-13T14:17:06.752Z,100049.41
2018-02-13T14:19:34.192Z,100045.61
2018-02-13T14:22:01.634Z,100040.59
2018-02-13T14:24:29.113Z,100036.56
2018-02-13T14:26:56.565Z,100039.73
2018-02-13T14:29:24.180Z,100039.03
2018-02-13T14:31:51.617Z,100037.77
2018-02-13T14:34:19.070Z,100032.02
2018-02-13T14:36:46.531Z,100036.80
2018-02-13T14:39:13.970Z,100027.72
2018-02-13T14:41:41.637Z,100025.95
2018-02-13T14:44:09.074Z,100029.20
2018-02-13T14:46:36.526Z,100026.15
2018-02-13T14:49:03.996Z,100020.58
2018-02-13T14:51:31.436Z,100026.78
2018-02-13T14:53:59.096Z,100030.12
2018-02-13T14:56:26.532Z,100034.47
2018-02-13T14:58:54.000Z,100033.02
2018-02-13T15:01:21.485Z,100033.29
2018-02-13T15:03:48.927Z,100026.19
2018-02-13T15:06:16.416Z,100026.55
2018-02-13T15:08:43.871Z,100018.94
2018-02-13T15:11:11.327Z,100030.55
2018-02-13T15:13:38.796Z,100020.28
2018-02-13T15:16:06.261Z,100025.11
2018-02-13T15:18:37.190Z,100022.94
2018-02-13T15:21:04.609Z,100017.70
2018-02-13T15:23:32.193Z,100016.77
2018-02-13T15:25:59.629Z,100020.38
2018-02-13T15:28:27.078Z,100017.20
2018-02-13T15:30:54.556Z,100020.14
2018-02-13T15:33:21.996Z,100018.41
2018-02-13T15:35:49.772Z,100018.01
2018-02-13T15:38:17.234Z,100020.78
2018-02-13T15:40:44.691Z,100011.06
2018-02-13T15:43:12.152Z,100011.58
2018-02-13T15:45:39.598Z,100006.38
2018-02-13T15:48:07.068Z,100010.77
2018-02-13T15:50:34.537Z,100008.56
2018-02-13T15:53:01.988Z,100006.45
2018-02-13T15:55:29.455Z,100010.50
2018-02-13T15:57:56.892Z,100007.47
2018-02-13T16:00:24.328Z,100000.06
2018-02-13T16:02:51.789Z,99996.14
2018-02-13T16:05:19.261Z,100001.05
2018-02-13T16:07:46.713Z,99997.16
2018-02-13T16:10:14.176Z,99994.16
2018-02-13T16:12:41.617Z,99991.98
2018-02-13T16:15:09.053Z,99997.72
2018-02-13T16:17:36.530Z,100002.52
2018-02-13T16:20:03.981Z,100008.31
2018-02-13T16:22:31.432Z,100001.35
2018-02-13T16:24:58.915Z,100002.67
2018-02-13T16:27:26.360Z,100001.80
2018-02-13T16:29:53.808Z,99997.91
2018-02-13T16:32:21.441Z,100000.16
2018-02-13T16:34:48.878Z,99999.34
2018-02-13T16:37:16.313Z,100003.78
2018-02-13T16:39:44.062Z,100004.27
2018-02-13T16:42:11.496Z,99999.02
2018-02-13T16:44:38.938Z,100002.11
2018-02-13T16:47:06.425Z,100013.09
2018-02-13T16:49:33.860Z,100011.79
2018-02-13T16:52:01.336Z,100008.33
2018-02-13T16:54:28.781Z,100017.09
2018-02-13T16:56:56.252Z,100009.69
2018-02-13T16:59:23.728Z,100008.36
2018-02-13T17:01:51.166Z,100011.47
2018-02-13T17:04:18.850Z,100009.75
2018-02-13T17:06:46.317Z,100013.70
2018-02-13T17:09:13.748Z,100006.26
2018-02-13T17:11:41.232Z,100010.20
2018-02-13T17:14:08.689Z,100009.78
2018-02-13T17:16:36.168Z,100014.56
2018-02-13T17:19:03.618Z,100016.72
2018-02-13T17:21:31.056Z,100028.52
2018-02-13T17:23:58.528Z,100025.40
2018-02-13T17:26:25.985Z,100021.47
2018-02-13T17:28:53.436Z,100021.91
2018-02-13T17:31:20.882Z,100031.94
2018-02-13T17:33:48.600Z,100027.58
2018-02-13T17:36:16.056Z,100026.22
2018-02-13T17:38:43.611Z,100026.63
2018-02-13T17:41:11.093Z,100023.55
2018-02-13T17:43:38.583Z,100024.81
2018-02-13T17:46:06.244Z,100025.69
2018-02-13T17:48:33.688Z,100028.25
2018-02-13T17:51:01.134Z,100028.23
2018-02-13T17:53:28.616Z,100030.36
2018-02-13T17:55:56.073Z,100029.48
2018-02-13T17:58:23.793Z,100026.86
2018-02-13T18:00:51.229Z,100028.14
2018-02-13T18:03:18.677Z,100026.84
2018-02-13T18:05:46.173Z,100028.16
2018-02-13T18:08:13.637Z,100028.09
2018-02-13T18:10:41.401Z,100034.69
2018-02-13T18:13:08.852Z,100038.56
2018-02-13T18:15:36.292Z,100038.55
2018-02-13T18:18:03.784Z,100040.22
2018-02-13T18:20:31.257Z,100039.88
2018-02-13T18:22:58.925Z,100047.70
2018-02-13T18:25:26.364Z,100042.90
2018-02-13T18:27:53.812Z,100040.30
2018-02-13T18:30:21.337Z,100035.91
2018-02-13T18:32:48.785Z,100044.58
2018-02-13T18:35:16.464Z,100045.41
2018-02-13T18:37:43.916Z,100039.75
2018-02-13T18:40:11.365Z,100037.58
2018-02-13T18:42:38.917Z,100038.88
2018-02-13T18:45:06.367Z,100042.75
2018-02-13T18:47:33.932Z,100040.98
2018-02-13T18:50:01.384Z,100043.59
2018-02-13T18:54:56.304Z,100042.69
2018-02-13T18:57:23.761Z,100044.00
2018-02-13T18:59:51.347Z,100044.44
2018-02-13T19:02:18.875Z,100042.68
2018-02-13T19:04:46.324Z,100047.05
2018-02-13T19:07:13.786Z,100049.17
2018-02-13T19:09:41.256Z,100051.36
2018-02-13T19:12:08.905Z,100051.80
2018-02-13T19:14:36.342Z,100061.37
2018-02-13T19:19:33.162Z,100052.22
2018-02-13T19:22:00.602Z,100056.53
2018-02-13T19:24:28.193Z,100053.91
2018-02-13T19:26:55.649Z,100058.27
2018-02-13T19:29:23.096Z,100054.79
2018-02-13T19:31:50.570Z,100058.33
2018-02-13T19:34:18.019Z,100055.33
2018-02-13T19:36:45.846Z,100055.27
2018-02-13T19:39:13.349Z,100058.39
2018-02-13T19:41:40.812Z,100064.91
2018-02-13T19:44:08.280Z,100069.22
2018-02-13T19:46:38.761Z,100060.95
2018-02-13T19:49:06.241Z,100063.12
2018-02-13T19:51:33.697Z,100059.17
2018-02-13T19:54:01.146Z,100065.67
2018-02-13T19:56:28.605Z,100060.84
2018-02-13T19:58:56.049Z,100062.52
2018-02-13T20:01:26.557Z,100058.63
2018-02-13T20:03:54.007Z,100063.41
2018-02-13T20:06:21.733Z,100066.42
2018-02-13T20:08:49.593Z,100065.98
2018-02-13T20:11:17.745Z,100068.63
2018-02-13T20:13:45.365Z,100069.93
2018-02-13T20:16:12.824Z,100067.80
2018-02-13T20:18:40.317Z,100065.59
2018-02-13T20:21:08.349Z,100069.53
2018-02-13T20:23:36.273Z,100067.33
2018-02-13T20:26:03.749Z,100066.46
2018-02-13T20:28:31.821Z,100078.23
2018-02-13T20:30:59.266Z,100068.66
2018-02-13T20:33:27.673Z,100072.97
2018-02-13T20:35:55.990Z,100072.52
2018-02-13T20:38:23.447Z,100076.38
2018-02-13T20:40:50.885Z,100084.04
2018-02-13T20:43:23.214Z,100084.38
2018-02-13T20:45:50.692Z,100082.22
2018-02-13T20:48:18.175Z,100080.83
2018-02-13T20:50:45.649Z,100079.88
2018-02-13T20:53:13.094Z,100085.02
2018-02-13T20:55:40.560Z,100087.22
2018-02-13T20:58:08.045Z,100084.15
2018-02-13T21:00:35.516Z,100080.60
2018-02-13T21:03:02.954Z,100087.45
2018-02-13T21:05:30.405Z,100089.49
2018-02-13T21:07:57.865Z,100101.27
2018-02-13T21:10:25.340Z,100092.73
2018-02-13T21:12:53.269Z,100089.73
2018-02-13T21:15:20.724Z,100092.58
2018-02-13T21:17:49.655Z,100095.33
2018-02-13T21:20:17.137Z,100097.73
2018-02-13T21:22:44.581Z,100102.89
2018-02-13T21:25:12.049Z,100105.78
2018-02-13T21:27:39.513Z,100113.85
2018-02-13T21:30:06.957Z,100118.25
2018-02-13T21:32:34.420Z,100114.98
2018-02-13T21:35:01.861Z,100119.42
2018-02-13T21:37:29.570Z,100121.11
2018-02-13T21:39:57.009Z,100117.88
2018-02-13T21:42:24.713Z,100120.84
2018-02-13T21:44:53.376Z,100121.40
2018-02-13T21:47:20.836Z,100124.47
2018-02-13T21:49:48.548Z,100125.88
2018-02-13T21:52:15.991Z,100128.44
2018-02-13T21:54:43.438Z,100127.40
2018-02-13T21:57:10.933Z,100130.27
2018-02-13T21:59:38.399Z,100132.80
2018-02-13T22:02:06.005Z,100121.63
2018-02-13T22:04:33.468Z,100130.27
2018-02-13T22:07:00.913Z,100132.37
2018-02-13T22:09:28.379Z,100127.25
2018-02-13T22:11:55.820Z,100137.39
2018-02-13T22:14:23.365Z,100138.89
2018-02-13T22:16:50.816Z,100139.70
2018-02-13T22:19:18.276Z,100139.48
2018-02-13T22:21:45.732Z,100138.55
2018-02-13T22:24:13.181Z,100143.08
2018-02-13T22:26:40.807Z,100142.01
2018-02-13T22:29:08.264Z,100141.42
2018-02-13T22:31:35.704Z,100145.23
2018-02-13T22:34:03.181Z,100141.03
2018-02-13T22:36:30.625Z,100150.46
2018-02-13T22:38:58.348Z,100143.80
2018-02-13T22:41:25.792Z,100146.17
2018-02-13T22:43:53.300Z,100150.27
2018-02-13T22:46:20.833Z,100153.77
2018-02-13T22:48:48.278Z,100156.63
2018-02-13T22:51:16.176Z,100155.11
2018-02-13T22:53:44.501Z,100158.06
2018-02-13T22:56:11.960Z,100163.77
2018-02-13T22:58:39.444Z,100160.47
2018-02-13T23:01:06.909Z,100158.48
2018-02-13T23:03:34.580Z,100159.58
2018-02-13T23:06:02.037Z,100158.55
2018-02-13T23:08:29.484Z,100157.84
2018-02-13T23:10:56.948Z,100163.45
2018-02-13T23:13:24.385Z,100163.85
2018-02-13T23:15:51.861Z,100163.89
2018-02-13T23:18:19.305Z,100166.86
2018-02-13T23:20:46.744Z,100173.52
2018-02-13T23:23:14.237Z,100170.75
2018-02-13T23:25:41.676Z,100180.93
2018-02-13T23:28:09.388Z,100183.66
2018-02-13T23:30:36.828Z,100180.97
2018-02-13T23:33:04.273Z,100181.92
2018-02-13T23:35:31.741Z,100184.27
2018-02-13T23:37:59.205Z,100173.78
2018-02-13T23:40:26.681Z,100183.97
2018-02-13T23:42:54.129Z,100180.52
2018-02-13T23:45:21.580Z,100182.70
2018-02-13T23:47:49.049Z,100178.63
2018-02-13T23:50:16.493Z,100182.23
2018-02-13T23:52:43.975Z,100177.64
2018-02-13T23:55:11.445Z,100184.21
2018-02-13T23:57:38.901Z,100185.00
